Terminal Aerodrome Forecast
Issued by NWS

Home | Current Version | Previous Version | Text Only | Print | Product List | Glossary On
Versions: 1 2 3 4 5 6 7 8 9 10 11 12 13 14 15 16 17 18 19 20 21 22 23 24 25 26 27 28 29 30
000
FTUS41 KCAR 282334 CCA
TAFHUL
TAF COR
KHUL 282334Z 2900/2924 VRB03KT P6SM BKN005
     FM290300 23004KT 3SM BR BKN003
     FM290500 25005KT 1SM BR BKN003
     FM290700 25005KT P6SM SCT003
     FM291000 24005KT P6SM BKN003
     FM291300 25015G25KT P6SM BKN080=

USA.gov is the U.S. government's official web portal to all federal, state and local government web resources and services.